createdAt,value
2023-02-16T00:02:59.292Z,18.42
2023-02-16T00:08:01.797Z,16.42
2023-02-16T00:13:39.831Z,18.15
2023-02-16T00:18:41.545Z,16.35
2023-02-16T00:30:15.622Z,21.38
2023-02-16T00:41:53.736Z,20.52
2023-02-16T00:46:55.957Z,19.88
2023-02-16T00:51:58.071Z,20.48
2023-02-16T00:56:59.916Z,18.50
2023-02-16T01:02:01.643Z,21.60
2023-02-16T01:07:34.877Z,22.42
2023-02-16T01:12:36.659Z,19.17
2023-02-16T01:17:38.456Z,16.65
2023-02-16T01:22:40.187Z,19.13
2023-02-16T01:27:43.393Z,22.95
2023-02-16T01:32:51.460Z,20.95
2023-02-16T01:37:53.233Z,21.50
2023-02-16T01:43:01.335Z,24.55
2023-02-16T01:48:07.209Z,17.95
2023-02-16T01:53:17.554Z,22.55
2023-02-16T01:58:19.303Z,17.48
2023-02-16T02:03:48.241Z,23.10
2023-02-16T02:09:11.153Z,24.23
2023-02-16T02:14:39.775Z,21.30
2023-02-16T02:19:50.300Z,18.42
2023-02-16T02:25:16.534Z,17.57
2023-02-16T02:30:46.368Z,21.15
2023-02-16T02:36:31.461Z,20.67
2023-02-16T02:42:01.975Z,21.85
2023-02-16T02:47:04.130Z,21.02
2023-02-16T02:52:06.474Z,18.98
2023-02-16T02:57:27.012Z,27.85
2023-02-16T03:02:30.552Z,20.98
2023-02-16T03:07:48.297Z,23.33
2023-02-16T03:12:50.665Z,18.10
2023-02-16T03:18:15.577Z,19.38
2023-02-16T03:23:35.873Z,18.67
2023-02-16T03:29:00.451Z,19.20
2023-02-16T03:34:02.976Z,21.67
2023-02-16T03:39:06.021Z,22.92
2023-02-16T03:44:08.220Z,17.77
2023-02-16T03:49:10.406Z,21.38
2023-02-16T03:54:13.146Z,17.50
2023-02-16T03:59:14.961Z,20.02
2023-02-16T04:04:16.800Z,20.25
2023-02-16T04:09:18.817Z,25.00
2023-02-16T04:14:20.588Z,22.63
2023-02-16T04:19:24.785Z,16.45
2023-02-16T04:24:26.604Z,14.60
2023-02-16T04:29:29.347Z,18.17
2023-02-16T04:34:31.148Z,19.90
2023-02-16T04:39:33.524Z,18.08
2023-02-16T04:44:35.395Z,17.95
2023-02-16T04:49:37.263Z,19.20
2023-02-16T04:54:39.454Z,21.23
2023-02-16T04:59:41.292Z,16.83
2023-02-16T05:04:43.544Z,15.50
2023-02-16T05:09:45.748Z,16.38
2023-02-16T05:14:47.906Z,20.35
2023-02-16T05:20:00.535Z,20.42
2023-02-16T05:25:02.385Z,16.20
2023-02-16T05:30:04.494Z,17.55
2023-02-16T05:35:07.021Z,23.20
2023-02-16T05:40:09.394Z,15.68
2023-02-16T05:45:11.588Z,16.52
2023-02-16T05:50:13.769Z,22.13
2023-02-16T05:55:15.593Z,22.30
2023-02-16T06:00:17.845Z,16.15
2023-02-16T06:05:20.089Z,14.38
2023-02-16T06:10:21.893Z,20.70
2023-02-16T06:15:24.052Z,17.42
2023-02-16T06:20:26.018Z,18.48
2023-02-16T06:25:27.756Z,15.95
2023-02-16T06:30:30.206Z,19.42
2023-02-16T06:35:32.176Z,20.67
2023-02-16T06:40:34.037Z,15.30
2023-02-16T06:45:36.194Z,22.65
2023-02-16T06:50:37.930Z,19.88
2023-02-16T06:55:39.678Z,41.33
2023-02-16T07:00:41.443Z,21.90
2023-02-16T07:05:44.224Z,20.98
2023-02-16T07:10:50.243Z,15.38
2023-02-16T07:15:52.348Z,25.42
2023-02-16T07:20:54.133Z,19.60
2023-02-16T07:25:55.974Z,26.25
2023-02-16T07:30:58.016Z,28.63
2023-02-16T07:36:00.153Z,35.60
2023-02-16T07:41:02.877Z,26.33
2023-02-16T07:46:05.751Z,24.63
2023-02-16T07:51:07.995Z,25.40
2023-02-16T07:56:18.241Z,27.15
2023-02-16T08:01:20.692Z,30.15
2023-02-16T08:06:23.364Z,28.40
2023-02-16T08:11:25.782Z,29.25
2023-02-16T08:16:29.078Z,25.35
2023-02-16T08:21:33.335Z,22.42
2023-02-16T08:26:40.566Z,22.38
2023-02-16T08:31:42.823Z,23.15
2023-02-16T08:36:46.234Z,22.52
2023-02-16T08:41:50.118Z,19.30
2023-02-16T08:46:55.033Z,39.72
2023-02-16T08:51:58.852Z,39.45
2023-02-16T08:57:02.878Z,36.70
2023-02-16T09:02:04.904Z,36.92
2023-02-16T09:07:06.762Z,42.70
2023-02-16T09:12:08.870Z,33.33
2023-02-16T09:17:10.700Z,24.85
2023-02-16T09:22:13.044Z,28.65
2023-02-16T09:27:14.809Z,38.35
2023-02-16T09:32:17.311Z,37.78
2023-02-16T09:37:19.116Z,29.90
2023-02-16T09:42:51.608Z,36.25
2023-02-16T09:47:56.658Z,31.38
2023-02-16T09:53:01.246Z,27.30
2023-02-16T09:58:12.922Z,23.42
2023-02-16T10:03:37.383Z,24.23
2023-02-16T10:08:47.173Z,20.70
2023-02-16T10:13:54.146Z,22.05
2023-02-16T10:18:58.949Z,21.60
2023-02-16T10:24:04.616Z,21.63
2023-02-16T10:29:14.150Z,20.85
2023-02-16T10:34:51.070Z,19.15
2023-02-16T10:40:04.829Z,17.55
2023-02-16T10:45:35.855Z,16.65
2023-02-16T10:50:58.774Z,15.05
2023-02-16T10:56:00.902Z,16.23
2023-02-16T11:01:20.501Z,13.00
2023-02-16T11:06:25.590Z,30.55
2023-02-16T11:11:29.229Z,16.92
2023-02-16T11:16:31.252Z,13.38
2023-02-16T11:22:02.468Z,17.25
2023-02-16T11:27:18.441Z,16.02
2023-02-16T11:32:22.302Z,18.42
2023-02-16T11:37:34.482Z,10.00
2023-02-16T11:42:44.038Z,11.27
2023-02-16T11:47:56.976Z,14.95
2023-02-16T11:53:24.093Z,10.82
2023-02-16T11:58:27.596Z,8.95
2023-02-16T12:03:57.270Z,8.90
2023-02-16T12:09:24.368Z,9.95
2023-02-16T12:14:51.604Z,8.38
2023-02-16T12:20:18.499Z,8.02
2023-02-16T12:25:31.205Z,7.57
2023-02-16T12:30:38.852Z,9.25
2023-02-16T12:36:02.783Z,9.82
2023-02-16T12:41:29.674Z,8.77
2023-02-16T12:46:44.895Z,15.77
2023-02-16T12:51:51.494Z,8.65
2023-02-16T12:56:59.428Z,10.43
2023-02-16T13:02:04.806Z,8.98
2023-02-16T13:07:30.987Z,11.80
2023-02-16T13:12:39.809Z,15.77
2023-02-16T13:17:57.903Z,12.75
2023-02-16T13:23:21.016Z,16.05
2023-02-16T13:28:34.648Z,8.95
2023-02-16T13:33:51.461Z,16.40
2023-02-16T13:39:14.904Z,12.60
2023-02-16T13:44:20.770Z,14.25
2023-02-16T13:49:46.476Z,11.32
2023-02-16T13:54:50.106Z,9.82
2023-02-16T13:59:59.958Z,12.30
2023-02-16T14:05:06.753Z,10.18
2023-02-16T14:10:13.749Z,11.18
2023-02-16T14:15:20.647Z,11.30
2023-02-16T14:20:22.734Z,8.95
2023-02-16T14:25:24.496Z,15.20
2023-02-16T14:30:54.558Z,10.68
2023-02-16T14:35:59.088Z,11.93
2023-02-16T14:41:03.569Z,18.77
2023-02-16T14:46:37.758Z,8.43
2023-02-16T14:51:45.202Z,7.75
2023-02-16T14:57:02.245Z,9.32
2023-02-16T15:02:24.434Z,18.60
2023-02-16T15:12:32.795Z,15.80
2023-02-16T15:17:51.372Z,16.30
2023-02-16T15:22:59.877Z,36.90
2023-02-16T15:28:22.490Z,23.67
2023-02-16T15:33:24.693Z,30.23
2023-02-16T15:38:32.125Z,28.88
2023-02-16T15:43:43.841Z,24.05
2023-02-16T15:48:45.976Z,15.57
2023-02-16T15:53:51.900Z,15.07
2023-02-16T15:58:54.999Z,21.65
2023-02-16T16:03:57.163Z,13.35
2023-02-16T16:08:59.318Z,11.43
2023-02-16T16:14:02.349Z,11.55
2023-02-16T16:19:37.671Z,17.75
2023-02-16T16:24:39.953Z,17.05
2023-02-16T16:29:47.435Z,18.95
2023-02-16T16:34:50.242Z,17.60
2023-02-16T16:40:08.811Z,21.52
2023-02-16T16:45:22.792Z,19.80
2023-02-16T16:50:32.599Z,12.77
2023-02-16T16:55:34.715Z,19.83
2023-02-16T17:00:38.606Z,14.23
2023-02-16T17:05:41.507Z,12.88
2023-02-16T17:10:43.395Z,26.13
2023-02-16T17:15:58.888Z,18.70
2023-02-16T17:21:00.722Z,14.15
2023-02-16T17:26:02.824Z,9.27
2023-02-16T17:31:06.773Z,21.55
2023-02-16T17:36:12.121Z,49.33
2023-02-16T17:41:28.739Z,49.28
2023-02-16T17:46:31.970Z,14.85
2023-02-16T17:51:36.355Z,15.27
2023-02-16T17:56:39.699Z,25.20
2023-02-16T18:01:45.091Z,23.08
2023-02-16T18:06:46.862Z,15.75
2023-02-16T18:11:50.188Z,26.17
2023-02-16T18:16:52.389Z,27.77
2023-02-16T18:21:54.782Z,73.63
2023-02-16T18:26:56.653Z,63.38
2023-02-16T18:31:58.560Z,41.63
2023-02-16T18:37:00.524Z,74.32
2023-02-16T18:42:02.255Z,92.68
2023-02-16T18:47:04.045Z,89.47
2023-02-16T18:52:05.949Z,59.20
2023-02-16T18:57:07.932Z,59.10
2023-02-16T19:02:12.307Z,59.50
2023-02-16T19:07:14.110Z,87.93
2023-02-16T19:12:15.886Z,38.83
2023-02-16T19:17:17.745Z,27.00
2023-02-16T19:22:19.516Z,24.42
2023-02-16T19:27:21.317Z,15.38
2023-02-16T19:32:23.047Z,26.67
2023-02-16T19:37:25.035Z,35.85
2023-02-16T19:42:27.232Z,52.67
2023-02-16T19:47:29.313Z,28.40
2023-02-16T19:52:31.084Z,47.72
2023-02-16T19:57:32.784Z,43.33
2023-02-16T20:02:34.496Z,36.17
2023-02-16T20:07:36.564Z,13.75
2023-02-16T20:12:38.395Z,31.77
2023-02-16T20:17:40.177Z,25.67
2023-02-16T20:22:41.974Z,24.05
2023-02-16T20:27:43.901Z,22.73
2023-02-16T20:32:48.092Z,20.60
2023-02-16T20:37:49.824Z,24.08
2023-02-16T20:42:51.567Z,22.58
2023-02-16T20:47:53.307Z,12.25
2023-02-16T20:52:55.068Z,9.40
2023-02-16T20:57:56.900Z,14.32
2023-02-16T21:02:58.630Z,24.08
2023-02-16T21:08:00.986Z,25.15
2023-02-16T21:13:02.847Z,26.70
2023-02-16T21:18:05.133Z,30.42
2023-02-16T21:23:07.507Z,37.80
2023-02-16T21:28:09.515Z,34.63
2023-02-16T21:33:11.299Z,32.40
2023-02-16T21:38:13.185Z,26.67
2023-02-16T21:43:14.956Z,27.80
2023-02-16T21:48:35.681Z,15.32
2023-02-16T21:53:37.483Z,15.40
2023-02-16T21:58:39.207Z,16.65
2023-02-16T22:03:41.138Z,12.43
2023-02-16T22:08:43.026Z,6.95
2023-02-16T22:13:44.978Z,34.03
2023-02-16T22:18:46.833Z,27.05
2023-02-16T22:23:48.625Z,22.48
2023-02-16T22:28:50.602Z,28.88
2023-02-16T22:34:16.962Z,18.70
2023-02-16T22:39:19.611Z,28.98
2023-02-16T22:44:21.385Z,22.60
2023-02-16T22:49:23.166Z,15.25
2023-02-16T22:54:25.505Z,20.58
2023-02-16T22:59:27.272Z,10.38
2023-02-16T23:04:29.025Z,9.43
2023-02-16T23:09:31.495Z,7.13
2023-02-16T23:14:37.242Z,9.27
2023-02-16T23:19:40.266Z,6.25
2023-02-16T23:24:42.084Z,5.25
2023-02-16T23:29:43.823Z,7.35
2023-02-16T23:34:45.594Z,7.60
2023-02-16T23:39:47.340Z,8.45
2023-02-16T23:44:49.173Z,6.65
2023-02-16T23:49:51.148Z,10.68
2023-02-16T23:54:52.924Z,9.50
2023-02-16T23:59:54.683Z,9.80
